Station Historical Data
Daily Summary for November 9, 2017 Units:  English    Metric   Both
« Previous Day
Next Day »
Daily Weekly Monthly Yearly Custom
  High: Low: Average:
Temperature: 50.8 °F 28.5 °F 39.2 °F
Dew Point: 40.1 °F 14.4 °F 30.7 °F
Humidity: 89% 55% 72%
Wind Speed: 19.0mph 0.0mph 5.3mph
Wind Gust: 31.0mph - -
Wind- - WSW
Pressure: 30.21 in 29.87 in -
Precipitation: 0.00 in    
Historical Graphs
 
 
Tabular Data for November 9, 2017
Time Temperature Dew Point Pressure Wind Wind Speed Wind Gust Humidity Rainfall Rate (Hourly)
00:04 30.3 °F 26.9 °F 30.21 in Calm     87% 0.00 in
00:09 30.3 °F 26.9 °F 30.21 in Calm     87% 0.00 in
00:14 30.3 °F 26.9 °F 30.21 in Calm     87% 0.00 in
00:19 30.4 °F 27.0 °F 30.21 in Calm     87% 0.00 in
00:24 30.3 °F 26.9 °F 30.21 in Calm     87% 0.00 in
00:29 30.4 °F 27.0 °F 30.20 in Calm     87% 0.00 in
00:34 30.7 °F 27.3 °F 30.20 in Calm     87% 0.00 in
00:39 30.8 °F 27.4 °F 30.20 in Calm     87% 0.00 in
00:44 30.5 °F 27.1 °F 30.20 in Calm     87% 0.00 in
00:49 30.4 °F 27.0 °F 30.20 in Calm     87% 0.00 in
00:54 30.3 °F 26.9 °F 30.20 in Calm     87% 0.00 in
00:59 30.2 °F 26.8 °F 30.20 in Calm     87% 0.00 in
01:04 30.5 °F 27.4 °F 30.20 in Calm     88% 0.00 in
01:09 30.7 °F 27.3 °F 30.20 in Calm     87% 0.00 in
01:14 30.5 °F 27.1 °F 30.20 in Calm     87% 0.00 in
01:19 30.2 °F 26.8 °F 30.20 in Calm     87% 0.00 in
01:24 30.3 °F 26.9 °F 30.20 in Calm     87% 0.00 in
01:29 30.5 °F 27.4 °F 30.20 in Calm     88% 0.00 in
01:34 30.6 °F 27.5 °F 30.20 in Calm     88% 0.00 in
01:39 30.6 °F 27.5 °F 30.19 in Calm     88% 0.00 in
01:44 30.5 °F 27.4 °F 30.19 in Calm     88% 0.00 in
01:49 30.6 °F 27.5 °F 30.19 in Calm     88% 0.00 in
01:54 30.4 °F 27.0 °F 30.19 in Calm     87% 0.00 in
01:59 30.5 °F 27.4 °F 30.19 in Calm     88% 0.00 in
02:04 30.5 °F 27.4 °F 30.19 in Calm     88% 0.00 in
02:09 30.5 °F 27.4 °F 30.19 in Calm     88% 0.00 in
02:14 30.4 °F 27.3 °F 30.19 in Calm     88% 0.00 in
02:19 30.4 °F 27.3 °F 30.19 in Calm     88% 0.00 in
02:24 30.4 °F 27.3 °F 30.19 in Calm     88% 0.00 in
02:29 30.4 °F 27.3 °F 30.19 in Calm     88% 0.00 in
02:34 30.5 °F 27.4 °F 30.19 in Calm     88% 0.00 in
02:39 30.8 °F 27.7 °F 30.18 in Calm     88% 0.00 in
02:44 30.9 °F 27.8 °F 30.18 in Calm     88% 0.00 in
02:49 30.9 °F 27.8 °F 30.18 in Calm     88% 0.00 in
02:54 30.8 °F 27.7 °F 30.18 in Calm     88% 0.00 in
02:59 30.8 °F 27.7 °F 30.18 in Calm     88% 0.00 in
03:04 30.8 °F 27.7 °F 30.18 in Calm     88% 0.00 in
03:09 30.9 °F 27.8 °F 30.18 in Calm     88% 0.00 in
03:14 31.0 °F 28.1 °F 30.18 in Calm     89% 0.00 in
03:19 31.1 °F 28.2 °F 30.17 in Calm     89% 0.00 in
03:24 31.2 °F 28.3 °F 30.17 in Calm     89% 0.00 in
03:29 31.4 °F 28.5 °F 30.17 in Calm     89% 0.00 in
03:34 31.6 °F 28.7 °F 30.17 in Calm     89% 0.00 in
03:39 31.8 °F 28.9 °F 30.17 in Calm     89% 0.00 in
03:44 32.0 °F 28.8 °F 30.17 in Calm     88% 0.00 in
03:49 32.1 °F 28.9 °F 30.17 in Calm     88% 0.00 in
03:54 32.1 °F 28.9 °F 30.17 in Calm     88% 0.00 in
03:59 32.0 °F 28.8 °F 30.17 in Calm     88% 0.00 in
04:04 32.0 °F 28.8 °F 30.16 in Calm     88% 0.00 in
04:09 32.1 °F 28.9 °F 30.16 in Calm     88% 0.00 in
04:14 32.1 °F 28.7 °F 30.16 in Calm     87% 0.00 in
04:19 32.3 °F 28.9 °F 30.16 in Calm     87% 0.00 in
04:24 32.3 °F 28.9 °F 30.16 in Calm     87% 0.00 in
04:29 32.3 °F 28.9 °F 30.15 in Calm     87% 0.00 in
04:34 32.2 °F 28.8 °F 30.15 in Calm     87% 0.00 in
04:39 32.1 °F 28.4 °F 30.15 in Calm     86% 0.00 in
04:44 32.2 °F 28.8 °F 30.15 in Calm     87% 0.00 in
04:49 32.4 °F 28.7 °F 30.15 in Calm     86% 0.00 in
04:54 32.5 °F 28.8 °F 30.15 in Calm     86% 0.00 in
04:59 32.6 °F 28.9 °F 30.15 in Calm     86% 0.00 in
05:04 32.7 °F 29.0 °F 30.15 in Calm     86% 0.00 in
05:09 32.8 °F 28.8 °F 30.15 in Calm     85% 0.00 in
05:14 32.8 °F 28.8 °F 30.15 in Calm     85% 0.00 in
05:19 32.7 °F 28.7 °F 30.14 in Calm     85% 0.00 in
05:24 32.8 °F 28.5 °F 30.14 in Calm     84% 0.00 in
05:29 32.7 °F 28.4 °F 30.14 in Calm     84% 0.00 in
05:34 32.8 °F 28.2 °F 30.14 in Calm     83% 0.00 in
05:39 32.9 °F 28.3 °F 30.14 in Calm     83% 0.00 in
05:44 32.9 °F 28.0 °F 30.14 in Calm     82% 0.00 in
05:49 33.0 °F 28.1 °F 30.14 in Calm     82% 0.00 in
05:54 33.0 °F 27.8 °F 30.13 in Calm     81% 0.00 in
05:59 33.1 °F 27.9 °F 30.13 in Calm     81% 0.00 in
06:04 33.2 °F 28.0 °F 30.13 in Calm     81% 0.00 in
06:09 33.3 °F 27.8 °F 30.14 in Calm     80% 0.00 in
06:14 33.4 °F 27.9 °F 30.14 in Calm     80% 0.00 in
06:19 33.6 °F 27.8 °F 30.14 in Calm     79% 0.00 in
06:24 33.8 °F 28.0 °F 30.14 in Calm     79% 0.00 in
06:29 33.8 °F 28.0 °F 30.14 in Calm     79% 0.00 in
06:34 33.7 °F 27.9 °F 30.14 in Calm     79% 0.00 in
06:39 34.1 °F 28.3 °F 30.13 in Calm   4.0 mph 79% 0.00 in
06:44 34.4 °F 28.2 °F 30.13 in Calm   4.0 mph 78% 0.00 in
06:49 34.7 °F 28.2 °F 30.13 in Calm     77% 0.00 in
06:54 34.9 °F 28.1 °F 30.13 in Calm   5.0 mph 76% 0.00 in
06:59 35.2 °F 28.1 °F 30.13 in Calm   1.0 mph 75% 0.00 in
07:04 35.4 °F 27.9 °F 30.12 in Calm   3.0 mph 74% 0.00 in
07:09 35.7 °F 28.2 °F 30.12 in SSW 1.0 mph 4.0 mph 74% 0.00 in
07:14 35.9 °F 28.1 °F 30.12 in SSW 2.0 mph 5.0 mph 73% 0.00 in
07:19 36.1 °F 27.9 °F 30.12 in SW 1.0 mph 7.0 mph 72% 0.00 in
07:24 36.2 °F 28.0 °F 30.12 in SSW 1.0 mph 4.0 mph 72% 0.00 in
07:29 36.2 °F 28.0 °F 30.12 in SW 3.0 mph 6.0 mph 72% 0.00 in
07:34 36.4 °F 28.2 °F 30.12 in SSW 2.0 mph 6.0 mph 72% 0.00 in
07:39 36.5 °F 28.0 °F 30.12 in SSW 1.0 mph 5.0 mph 71% 0.00 in
07:44 36.7 °F 28.2 °F 30.12 in Calm   4.0 mph 71% 0.00 in
07:49 37.0 °F 28.1 °F 30.12 in Calm   6.0 mph 70% 0.00 in
07:54 37.2 °F 28.3 °F 30.12 in Calm   4.0 mph 70% 0.00 in
07:59 37.3 °F 28.4 °F 30.12 in SW 2.0 mph 3.0 mph 70% 0.00 in
08:04 37.5 °F 28.2 °F 30.11 in SW 1.0 mph 5.0 mph 69% 0.00 in
08:09 37.7 °F 28.1 °F 30.11 in SW 2.0 mph 5.0 mph 68% 0.00 in
08:14 37.8 °F 28.2 °F 30.11 in SW 1.0 mph 4.0 mph 68% 0.00 in
08:19 38.0 °F 28.4 °F 30.11 in SW 1.0 mph 4.0 mph 68% 0.00 in
08:24 38.3 °F 29.0 °F 30.11 in Calm   4.0 mph 69% 0.00 in
08:29 38.5 °F 29.2 °F 30.11 in Calm     69% 0.00 in
08:34 38.8 °F 29.1 °F 30.11 in Calm   3.0 mph 68% 0.00 in
08:39 38.9 °F 29.9 °F 30.11 in Calm   3.0 mph 70% 0.00 in
08:44 39.2 °F 29.9 °F 30.11 in NW 1.0 mph 1.0 mph 69% 0.00 in
08:49 39.6 °F 30.6 °F 30.11 in Calm   2.0 mph 70% 0.00 in
08:54 39.7 °F 30.4 °F 30.11 in Calm   1.0 mph 69% 0.00 in
08:59 39.8 °F 30.5 °F 30.11 in Calm     69% 0.00 in
09:04 40.0 °F 29.9 °F 30.11 in Calm     67% 0.00 in
09:09 40.4 °F 30.3 °F 30.11 in West 1.0 mph 3.0 mph 67% 0.00 in
09:14 40.8 °F 30.7 °F 30.11 in WSW 2.0 mph 5.0 mph 67% 0.00 in
09:19 41.5 °F 30.6 °F 30.10 in SSW 3.0 mph 6.0 mph 65% 0.00 in
09:24 41.8 °F 30.9 °F 30.10 in SSW 3.0 mph 7.0 mph 65% 0.00 in
09:29 41.9 °F 31.0 °F 30.10 in SSW 2.0 mph 7.0 mph 65% 0.00 in
09:34 42.0 °F 31.1 °F 30.10 in SSW 3.0 mph 5.0 mph 65% 0.00 in
09:39 42.0 °F 30.7 °F 30.10 in SSW 1.0 mph 5.0 mph 64% 0.00 in
09:44 42.0 °F 30.7 °F 30.09 in SSW 2.0 mph 4.0 mph 64% 0.00 in
09:49 42.1 °F 30.8 °F 30.09 in South 2.0 mph 5.0 mph 64% 0.00 in
09:54 42.2 °F 30.9 °F 30.08 in South 2.0 mph 5.0 mph 64% 0.00 in
09:59 42.4 °F 30.7 °F 30.08 in SSW 2.0 mph 7.0 mph 63% 0.00 in
10:04 42.7 °F 31.0 °F 30.08 in SW 1.0 mph 4.0 mph 63% 0.00 in
10:09 43.0 °F 30.9 °F 30.07 in SSW 2.0 mph 4.0 mph 62% 0.00 in
10:14 43.4 °F 31.2 °F 30.07 in South 2.0 mph 6.0 mph 62% 0.00 in
10:19 43.5 °F 31.3 °F 30.07 in South 2.0 mph 6.0 mph 62% 0.00 in
10:24 43.4 °F 30.8 °F 30.07 in South 2.0 mph 6.0 mph 61% 0.00 in
10:29 43.6 °F 31.4 °F 30.07 in SSW 2.0 mph 6.0 mph 62% 0.00 in
10:34 43.8 °F 31.6 °F 30.06 in SSW 2.0 mph 6.0 mph 62% 0.00 in
10:39 44.0 °F 31.8 °F 30.06 in SSW 2.0 mph 7.0 mph 62% 0.00 in
10:44 44.0 °F 31.4 °F 30.06 in South 3.0 mph 7.0 mph 61% 0.00 in
10:49 44.2 °F 32.0 °F 30.05 in South 3.0 mph 7.0 mph 62% 0.00 in
10:54 44.7 °F 32.1 °F 30.05 in South 1.0 mph 9.0 mph 61% 0.00 in
10:59 45.0 °F 32.3 °F 30.05 in SW 2.0 mph 8.0 mph 61% 0.00 in
11:04 45.4 °F 32.7 °F 30.05 in SSW 3.0 mph 8.0 mph 61% 0.00 in
11:09 45.6 °F 32.5 °F 30.04 in South 6.0 mph 6.0 mph 60% 0.00 in
11:14 45.6 °F 32.1 °F 30.04 in SSW 3.0 mph 7.0 mph 59% 0.00 in
11:19 46.0 °F 32.5 °F 30.04 in SW 4.0 mph 9.0 mph 59% 0.00 in
11:24 46.6 °F 33.0 °F 30.03 in SW 5.0 mph 12.0 mph 59% 0.00 in
11:29 47.1 °F 33.5 °F 30.03 in SW 6.0 mph 10.0 mph 59% 0.00 in
11:34 47.4 °F 33.8 °F 30.02 in South 7.0 mph 13.0 mph 59% 0.00 in
11:39 47.4 °F 33.4 °F 30.01 in SSW 8.0 mph 15.0 mph 58% 0.00 in
11:44 48.7 °F 35.0 °F 30.01 in SW 6.0 mph 15.0 mph 59% 0.00 in
11:49 49.6 °F 35.0 °F 30.01 in SW 6.0 mph 13.0 mph 57% 0.00 in
11:54 49.6 °F 34.1 °F 30.01 in SSW 7.0 mph 14.0 mph 55% 0.00 in
11:59 48.7 °F 33.7 °F 30.00 in SSW 7.0 mph 14.0 mph 56% 0.00 in
12:04 48.2 °F 33.7 °F 30.00 in WSW 10.0 mph 18.0 mph 57% 0.00 in
12:09 47.8 °F 33.7 °F 30.00 in SSE 3.0 mph 16.0 mph 58% 0.00 in
12:14 48.5 °F 34.8 °F 30.00 in WSW 16.0 mph 16.0 mph 59% 0.00 in
12:19 48.5 °F 34.8 °F 29.99 in SW 6.0 mph 16.0 mph 59% 0.00 in
12:24 47.9 °F 34.3 °F 29.99 in SW 7.0 mph 17.0 mph 59% 0.00 in
12:29 47.8 °F 35.0 °F 29.99 in SW 8.0 mph 17.0 mph 61% 0.00 in
12:34 47.7 °F 34.9 °F 29.99 in SW 12.0 mph 20.0 mph 61% 0.00 in
12:39 47.5 °F 34.7 °F 29.98 in South 9.0 mph 16.0 mph 61% 0.00 in
12:44 47.9 °F 35.1 °F 29.98 in WSW 4.0 mph 16.0 mph 61% 0.00 in
12:49 48.8 °F 35.9 °F 29.98 in SW 9.0 mph 16.0 mph 61% 0.00 in
12:54 49.7 °F 35.9 °F 29.97 in SW 8.0 mph 16.0 mph 59% 0.00 in
12:59 50.4 °F 36.2 °F 29.97 in SW 7.0 mph 16.0 mph 58% 0.00 in
13:04 49.9 °F 36.6 °F 29.96 in SW 6.0 mph 16.0 mph 60% 0.00 in
13:09 50.2 °F 36.4 °F 29.96 in SW 8.0 mph 21.0 mph 59% 0.00 in
13:14 50.8 °F 37.4 °F 29.96 in SW 9.0 mph 21.0 mph 60% 0.00 in
13:19 50.2 °F 36.0 °F 29.95 in SSW 3.0 mph 16.0 mph 58% 0.00 in
13:24 49.7 °F 36.4 °F 29.95 in SW 10.0 mph 20.0 mph 60% 0.00 in
13:29 49.4 °F 35.7 °F 29.95 in SSW 15.0 mph 20.0 mph 59% 0.00 in
13:34 49.3 °F 36.0 °F 29.94 in South 6.0 mph 18.0 mph 60% 0.00 in
13:39 49.2 °F 35.9 °F 29.94 in SSW 13.0 mph 18.0 mph 60% 0.00 in
13:44 49.0 °F 35.7 °F 29.94 in SW 4.0 mph 22.0 mph 60% 0.00 in
13:49 48.9 °F 34.3 °F 29.94 in SSE 8.0 mph 22.0 mph 57% 0.00 in
13:54 48.7 °F 35.0 °F 29.94 in SSW 8.0 mph 18.0 mph 59% 0.00 in
13:59 48.8 °F 35.1 °F 29.94 in SW 9.0 mph 20.0 mph 59% 0.00 in
14:04 48.7 °F 35.4 °F 29.94 in SW 9.0 mph 20.0 mph 60% 0.00 in
14:09 48.8 °F 35.9 °F 29.93 in SW 9.0 mph 20.0 mph 61% 0.00 in
14:14 48.6 °F 34.9 °F 29.93 in SW 9.0 mph 23.0 mph 59% 0.00 in
14:19 48.3 °F 34.2 °F 29.92 in SW 10.0 mph 23.0 mph 58% 0.00 in
14:24 48.3 °F 34.6 °F 29.92 in SW 10.0 mph 20.0 mph 59% 0.00 in
14:29 48.3 °F 34.6 °F 29.93 in WSW 11.0 mph 19.0 mph 59% 0.00 in
14:34 48.3 °F 34.2 °F 29.93 in WSW 6.0 mph 16.0 mph 58% 0.00 in
14:39 48.2 °F 34.1 °F 29.93 in WSW 9.0 mph 16.0 mph 58% 0.00 in
14:44 48.2 °F 34.1 °F 29.92 in SW 10.0 mph 20.0 mph 58% 0.00 in
14:49 48.3 °F 34.6 °F 29.92 in WSW 7.0 mph 17.0 mph 59% 0.00 in
14:54 48.3 °F 34.6 °F 29.92 in WSW 6.0 mph 19.0 mph 59% 0.00 in
14:59 48.4 °F 34.3 °F 29.91 in SW 10.0 mph 27.0 mph 58% 0.00 in
15:04 48.5 °F 34.4 °F 29.92 in WSW 10.0 mph 27.0 mph 58% 0.00 in
15:09 48.5 °F 34.8 °F 29.91 in WSW 8.0 mph 17.0 mph 59% 0.00 in
15:14 48.5 °F 34.8 °F 29.91 in SW 8.0 mph 18.0 mph 59% 0.00 in
15:19 48.6 °F 34.9 °F 29.91 in WSW 8.0 mph 18.0 mph 59% 0.00 in
15:24 48.6 °F 34.9 °F 29.91 in WSW 11.0 mph 19.0 mph 59% 0.00 in
15:29 48.6 °F 34.9 °F 29.91 in SW 13.0 mph 24.0 mph 59% 0.00 in
15:34 48.6 °F 34.9 °F 29.91 in WSW 14.0 mph 24.0 mph 59% 0.00 in
15:39 48.7 °F 34.6 °F 29.91 in SW 12.0 mph 24.0 mph 58% 0.00 in
15:44 48.7 °F 33.7 °F 29.91 in WSW 10.0 mph 23.0 mph 56% 0.00 in
15:49 48.6 °F 34.0 °F 29.91 in West 7.0 mph 23.0 mph 57% 0.00 in
15:54 48.6 °F 34.5 °F 29.90 in SW 7.0 mph 22.0 mph 58% 0.00 in
15:59 48.6 °F 34.9 °F 29.90 in SSW 10.0 mph 19.0 mph 59% 0.00 in
16:04 48.6 °F 34.9 °F 29.90 in SW 9.0 mph 22.0 mph 59% 0.00 in
16:09 48.6 °F 34.5 °F 29.90 in SW 11.0 mph 22.0 mph 58% 0.00 in
16:14 48.6 °F 34.5 °F 29.90 in WSW 11.0 mph 23.0 mph 58% 0.00 in
16:19 48.6 °F 34.5 °F 29.89 in WSW 8.0 mph 26.0 mph 58% 0.00 in
16:24 48.6 °F 34.9 °F 29.89 in WSW 19.0 mph 24.0 mph 59% 0.00 in
16:29 48.5 °F 35.7 °F 29.89 in SSW 14.0 mph 19.0 mph 61% 0.00 in
16:34 48.5 °F 36.1 °F 29.89 in WSW 15.0 mph 20.0 mph 62% 0.00 in
16:39 48.5 °F 36.1 °F 29.89 in SW 11.0 mph 23.0 mph 62% 0.00 in
16:44 48.5 °F 36.5 °F 29.89 in SW 11.0 mph 24.0 mph 63% 0.00 in
16:49 48.4 °F 36.0 °F 29.89 in SW 12.0 mph 26.0 mph 62% 0.00 in
16:54 48.2 °F 36.2 °F 29.89 in WSW 13.0 mph 26.0 mph 63% 0.00 in
16:59 48.0 °F 36.8 °F 29.88 in WSW 13.0 mph 27.0 mph 65% 0.00 in
17:04 47.8 °F 37.0 °F 29.88 in WSW 14.0 mph 31.0 mph 66% 0.00 in
17:09 47.5 °F 37.5 °F 29.88 in West 16.0 mph 21.0 mph 68% 0.00 in
17:14 47.3 °F 38.0 °F 29.89 in West 13.0 mph 24.0 mph 70% 0.01 in
17:19 46.9 °F 38.3 °F 29.89 in SW 11.0 mph 22.0 mph 72% 0.01 in
17:24 46.2 °F 38.7 °F 29.89 in West 6.0 mph 24.0 mph 75% 0.02 in
17:29 45.8 °F 39.0 °F 29.89 in NW 5.0 mph 21.0 mph 77% 0.03 in
17:34 45.5 °F 39.4 °F 29.89 in WNW 10.0 mph 21.0 mph 79% 0.04 in
17:39 45.2 °F 39.4 °F 29.88 in WSW 6.0 mph 13.0 mph 80% 0.05 in
17:44 45.1 °F 39.3 °F 29.88 in WSW 8.0 mph 17.0 mph 80% 0.05 in
17:49 45.1 °F 39.3 °F 29.88 in WSW 9.0 mph 22.0 mph 80% 0.06 in
17:54 45.1 °F 39.3 °F 29.87 in SW 10.0 mph 22.0 mph 80% 0.06 in
17:59 45.3 °F 39.8 °F 29.88 in WSW 9.0 mph 17.0 mph 81% 0.06 in
18:04 45.6 °F 40.1 °F 29.88 in WNW 6.0 mph 12.0 mph 81% 0.07 in
18:09 45.5 °F 39.7 °F 29.88 in West 7.0 mph 21.0 mph 80% 0.08 in
18:14 45.0 °F 39.2 °F 29.89 in West 10.0 mph 21.0 mph 80% 0.09 in
18:19 44.1 °F 38.3 °F 29.89 in West 10.0 mph 19.0 mph 80% 0.11 in
18:24 43.7 °F 38.3 °F 29.89 in West 6.0 mph 17.0 mph 81% 0.11 in
18:29 43.6 °F 38.2 °F 29.89 in West 8.0 mph 17.0 mph 81% 0.10 in
18:34 43.5 °F 37.7 °F 29.88 in WSW 5.0 mph 18.0 mph 80% 0.09 in
18:39 43.6 °F 37.5 °F 29.88 in WSW 6.0 mph 20.0 mph 79% 0.08 in
18:44 43.6 °F 37.2 °F 29.89 in West 8.0 mph 20.0 mph 78% 0.08 in
18:49 43.6 °F 37.2 °F 29.89 in West 7.0 mph 20.0 mph 78% 0.07 in
18:54 43.6 °F 37.2 °F 29.89 in West 6.0 mph 13.0 mph 78% 0.07 in
18:59 43.6 °F 36.5 °F 29.89 in West 7.0 mph 15.0 mph 76% 0.08 in
19:04 43.8 °F 36.4 °F 29.89 in West 8.0 mph 18.0 mph 75% 0.07 in
19:09 43.9 °F 36.5 °F 29.89 in West 8.0 mph 17.0 mph 75% 0.06 in
19:14 44.1 °F 36.0 °F 29.88 in SW 10.0 mph 21.0 mph 73% 0.04 in
19:19 44.2 °F 35.7 °F 29.89 in West 10.0 mph 21.0 mph 72% 0.02 in
19:24 44.3 °F 35.5 °F 29.88 in West 10.0 mph 24.0 mph 71% 0.01 in
19:29 44.3 °F 35.1 °F 29.89 in NW 14.0 mph 23.0 mph 70% 0.01 in
19:34 44.3 °F 35.1 °F 29.89 in WNW 11.0 mph 23.0 mph 70% 0.01 in
19:39 43.6 °F 34.5 °F 29.90 in WNW 15.0 mph 21.0 mph 70% 0.01 in
19:44 42.0 °F 33.6 °F 29.91 in West 9.0 mph 27.0 mph 72% 0.01 in
19:49 40.7 °F 33.1 °F 29.92 in WSW 16.0 mph 25.0 mph 74% 0.01 in
19:54 39.8 °F 32.8 °F 29.93 in WNW 14.0 mph 28.0 mph 76% 0.01 in
19:59 39.2 °F 32.9 °F 29.93 in WNW 13.0 mph 28.0 mph 78% 0.00 in
20:04 38.6 °F 32.3 °F 29.93 in WNW 12.0 mph 26.0 mph 78% 0.00 in
20:09 38.1 °F 31.2 °F 29.93 in West 13.0 mph 23.0 mph 76% 0.00 in
20:14 37.9 °F 31.0 °F 29.93 in West 12.0 mph 20.0 mph 76% 0.00 in
20:19 37.8 °F 30.6 °F 29.93 in West 19.0 mph 23.0 mph 75% 0.00 in
20:24 37.8 °F 30.6 °F 29.93 in WNW 8.0 mph 23.0 mph 75% 0.00 in
20:29 37.7 °F 30.8 °F 29.94 in WNW 10.0 mph 23.0 mph 76% 0.00 in
20:34 37.5 °F 30.6 °F 29.94 in WNW 9.0 mph 18.0 mph 76% 0.00 in
20:39 37.4 °F 30.8 °F 29.95 in WNW 12.0 mph 19.0 mph 77% 0.00 in
20:44 37.3 °F 30.7 °F 29.95 in SW 8.0 mph 22.0 mph 77% 0.00 in
20:49 37.2 °F 31.0 °F 29.95 in WNW 7.0 mph 17.0 mph 78% 0.00 in
20:54 37.1 °F 31.2 °F 29.96 in WNW 10.0 mph 17.0 mph 79% 0.00 in
20:59 36.9 °F 31.0 °F 29.96 in WNW 5.0 mph 13.0 mph 79% 0.00 in
21:04 36.7 °F 31.1 °F 29.97 in NNW 7.0 mph 15.0 mph 80% 0.00 in
21:14 35.9 °F 30.3 °F 29.98 in NW 5.0 mph 16.0 mph 80% 0.00 in
21:19 35.6 °F 30.0 °F 29.98 in NNW 6.0 mph 21.0 mph 80% 0.00 in
21:24 35.5 °F 29.6 °F 29.98 in NW 5.0 mph 15.0 mph 79% 0.00 in
21:29 35.5 °F 29.6 °F 29.99 in NW 9.0 mph 14.0 mph 79% 0.00 in
21:34 35.4 °F 29.2 °F 30.00 in NW 5.0 mph 15.0 mph 78% 0.00 in
21:39 35.4 °F 29.2 °F 30.00 in NW 7.0 mph 22.0 mph 78% 0.00 in
21:44 35.3 °F 28.8 °F 30.01 in WNW 9.0 mph 22.0 mph 77% 0.00 in
21:49 35.1 °F 28.3 °F 30.01 in WNW 10.0 mph 19.0 mph 76% 0.00 in
21:54 34.9 °F 27.8 °F 30.02 in WNW 10.0 mph 20.0 mph 75% 0.00 in
21:59 34.6 °F 27.2 °F 30.02 in WNW 10.0 mph 21.0 mph 74% 0.00 in
22:04 34.3 °F 26.5 °F 30.03 in WNW 13.0 mph 23.0 mph 73% 0.00 in
22:09 33.9 °F 25.5 °F 30.04 in NW 11.0 mph 22.0 mph 71% 0.00 in
22:14 33.4 °F 24.7 °F 30.04 in NW 14.0 mph 21.0 mph 70% 0.00 in
22:19 33.2 °F 24.8 °F 30.04 in West 13.0 mph 24.0 mph 71% 0.00 in
22:24 32.9 °F 24.5 °F 30.05 in WNW 15.0 mph 24.0 mph 71% 0.00 in
22:29 32.6 °F 24.2 °F 30.05 in West 15.0 mph 23.0 mph 71% 0.00 in
22:34 32.2 °F 23.5 °F 30.07 in WNW 12.0 mph 28.0 mph 70% 0.00 in
22:39 31.6 °F 21.9 °F 30.07 in WNW 14.0 mph 28.0 mph 67% 0.00 in
22:44 31.2 °F 21.2 °F 30.07 in WNW 13.0 mph 25.0 mph 66% 0.00 in
22:49 30.9 °F 20.9 °F 30.08 in WNW 12.0 mph 25.0 mph 66% 0.00 in
22:54 30.6 °F 20.2 °F 30.08 in WNW 12.0 mph 21.0 mph 65% 0.00 in
22:59 30.4 °F 19.7 °F 30.09 in WNW 3.0 mph 18.0 mph 64% 0.00 in
23:04 30.2 °F 18.7 °F 30.09 in WNW 8.0 mph 24.0 mph 62% 0.00 in
23:09 29.9 °F 18.5 °F 30.10 in WNW 11.0 mph 24.0 mph 62% 0.00 in
23:14 29.7 °F 18.3 °F 30.10 in WNW 10.0 mph 18.0 mph 62% 0.00 in
23:19 29.5 °F 18.1 °F 30.10 in WNW 8.0 mph 19.0 mph 62% 0.00 in
23:24 29.3 °F 17.5 °F 30.11 in WNW 4.0 mph 26.0 mph 61% 0.00 in
23:29 29.1 °F 16.9 °F 30.11 in West 6.0 mph 21.0 mph 60% 0.00 in
23:34 28.9 °F 16.7 °F 30.11 in WNW 10.0 mph 14.0 mph 60% 0.00 in
23:39 28.8 °F 16.3 °F 30.12 in WNW 9.0 mph 17.0 mph 59% 0.00 in
23:44 28.9 °F 16.0 °F 30.12 in WNW 10.0 mph 21.0 mph 58% 0.00 in
23:49 28.7 °F 15.4 °F 30.12 in WNW 12.0 mph 22.0 mph 57% 0.00 in
23:54 28.7 °F 15.0 °F 30.12 in WNW 10.0 mph 22.0 mph 56% 0.00 in
23:59 28.5 °F 14.4 °F 30.12 in NW 11.0 mph 20.0 mph 55% 0.00 in
Buffalo, New York, USA
Compliments of Weather Underground - 2.5 mb